sensor_id;sensor_type;location;lat;lon;timestamp;P1;durP1;ratioP1;P2;durP2;ratioP2
68757;SDS011;55747;51.998;4.466;2022-08-02T00:01:24;4.73;;;1.63;;
68757;SDS011;55747;51.998;4.466;2022-08-02T00:03:49;4.23;;;1.63;;
68757;SDS011;55747;51.998;4.466;2022-08-02T00:06:15;3.75;;;1.70;;
68757;SDS011;55747;51.998;4.466;2022-08-02T00:08:40;4.77;;;1.50;;
68757;SDS011;55747;51.998;4.466;2022-08-02T00:11:05;7.57;;;1.50;;
68757;SDS011;55747;51.998;4.466;2022-08-02T00:13:31;6.43;;;1.60;;
68757;SDS011;55747;51.998;4.466;2022-08-02T00:15:56;5.97;;;1.73;;
68757;SDS011;55747;51.998;4.466;2022-08-02T00:18:22;5.18;;;1.40;;
68757;SDS011;55747;51.998;4.466;2022-08-02T00:20:47;6.65;;;1.60;;
68757;SDS011;55747;51.998;4.466;2022-08-02T00:23:13;5.00;;;1.70;;
68757;SDS011;55747;51.998;4.466;2022-08-02T00:25:41;5.72;;;1.58;;
68757;SDS011;55747;51.998;4.466;2022-08-02T00:28:06;5.32;;;1.45;;
68757;SDS011;55747;51.998;4.466;2022-08-02T00:30:32;3.90;;;1.60;;
68757;SDS011;55747;51.998;4.466;2022-08-02T00:32:57;4.90;;;1.55;;
68757;SDS011;55747;51.998;4.466;2022-08-02T00:35:23;6.75;;;1.52;;
68757;SDS011;55747;51.998;4.466;2022-08-02T00:37:48;4.85;;;1.70;;
68757;SDS011;55747;51.998;4.466;2022-08-02T00:40:13;6.72;;;1.67;;
68757;SDS011;55747;51.998;4.466;2022-08-02T00:42:39;4.35;;;1.60;;
68757;SDS011;55747;51.998;4.466;2022-08-02T00:45:05;6.65;;;1.40;;
68757;SDS011;55747;51.998;4.466;2022-08-02T00:47:31;4.28;;;1.50;;
68757;SDS011;55747;51.998;4.466;2022-08-02T00:49:56;8.63;;;1.60;;
68757;SDS011;55747;51.998;4.466;2022-08-02T00:52:24;6.07;;;1.57;;
68757;SDS011;55747;51.998;4.466;2022-08-02T00:54:50;4.13;;;1.45;;
68757;SDS011;55747;51.998;4.466;2022-08-02T00:57:15;4.22;;;1.50;;
68757;SDS011;55747;51.998;4.466;2022-08-02T00:59:40;2.70;;;1.40;;
68757;SDS011;55747;51.998;4.466;2022-08-02T01:02:06;3.50;;;1.50;;
68757;SDS011;55747;51.998;4.466;2022-08-02T01:04:32;6.90;;;1.60;;
68757;SDS011;55747;51.998;4.466;2022-08-02T01:06:58;3.00;;;1.45;;
68757;SDS011;55747;51.998;4.466;2022-08-02T01:09:24;3.47;;;1.30;;
68757;SDS011;55747;51.998;4.466;2022-08-02T01:11:49;5.97;;;1.60;;
68757;SDS011;55747;51.998;4.466;2022-08-02T01:14:15;5.27;;;1.60;;
68757;SDS011;55747;51.998;4.466;2022-08-02T01:16:51;5.55;;;1.33;;
68757;SDS011;55747;51.998;4.466;2022-08-02T01:19:39;4.65;;;1.63;;
68757;SDS011;55747;51.998;4.466;2022-08-02T01:27:36;3.78;;;1.30;;
68757;SDS011;55747;51.998;4.466;2022-08-02T01:30:11;3.92;;;1.48;;
68757;SDS011;55747;51.998;4.466;2022-08-02T01:32:40;3.42;;;1.52;;
68757;SDS011;55747;51.998;4.466;2022-08-02T01:35:10;4.10;;;1.50;;
68757;SDS011;55747;51.998;4.466;2022-08-02T01:37:47;5.50;;;1.55;;
68757;SDS011;55747;51.998;4.466;2022-08-02T01:40:22;4.93;;;1.60;;
68757;SDS011;55747;51.998;4.466;2022-08-02T01:42:54;5.00;;;1.50;;
68757;SDS011;55747;51.998;4.466;2022-08-02T01:45:22;5.30;;;1.40;;
68757;SDS011;55747;51.998;4.466;2022-08-02T01:47:49;4.72;;;1.50;;
68757;SDS011;55747;51.998;4.466;2022-08-02T01:50:16;4.30;;;1.52;;
68757;SDS011;55747;51.998;4.466;2022-08-02T01:52:48;5.30;;;1.60;;
68757;SDS011;55747;51.998;4.466;2022-08-02T01:55:17;4.05;;;1.58;;
68757;SDS011;55747;51.998;4.466;2022-08-02T01:57:48;1.95;;;1.27;;
68757;SDS011;55747;51.998;4.466;2022-08-02T02:00:15;5.60;;;1.50;;
68757;SDS011;55747;51.998;4.466;2022-08-02T02:02:42;4.38;;;1.73;;
68757;SDS011;55747;51.998;4.466;2022-08-02T02:05:10;4.65;;;1.67;;
68757;SDS011;55747;51.998;4.466;2022-08-02T02:07:38;3.45;;;1.60;;
68757;SDS011;55747;51.998;4.466;2022-08-02T02:10:05;4.47;;;1.40;;
68757;SDS011;55747;51.998;4.466;2022-08-02T02:12:34;5.75;;;1.63;;
68757;SDS011;55747;51.998;4.466;2022-08-02T02:15:03;4.38;;;1.50;;
68757;SDS011;55747;51.998;4.466;2022-08-02T02:17:30;3.80;;;1.40;;
68757;SDS011;55747;51.998;4.466;2022-08-02T02:19:57;6.07;;;1.50;;
68757;SDS011;55747;51.998;4.466;2022-08-02T02:22:25;4.60;;;1.50;;
68757;SDS011;55747;51.998;4.466;2022-08-02T02:24:50;4.30;;;1.17;;
68757;SDS011;55747;51.998;4.466;2022-08-02T02:27:16;3.80;;;1.30;;
68757;SDS011;55747;51.998;4.466;2022-08-02T02:29:43;6.40;;;1.73;;
68757;SDS011;55747;51.998;4.466;2022-08-02T02:32:11;5.15;;;1.52;;
68757;SDS011;55747;51.998;4.466;2022-08-02T02:34:40;4.60;;;1.40;;
68757;SDS011;55747;51.998;4.466;2022-08-02T02:37:11;4.25;;;1.40;;
68757;SDS011;55747;51.998;4.466;2022-08-02T02:39:40;3.35;;;1.63;;
68757;SDS011;55747;51.998;4.466;2022-08-02T02:42:08;3.25;;;1.35;;
68757;SDS011;55747;51.998;4.466;2022-08-02T02:44:37;6.35;;;1.60;;
68757;SDS011;55747;51.998;4.466;2022-08-02T02:47:03;4.82;;;1.60;;
68757;SDS011;55747;51.998;4.466;2022-08-02T02:49:31;4.97;;;1.38;;
68757;SDS011;55747;51.998;4.466;2022-08-02T02:51:59;6.38;;;1.30;;
68757;SDS011;55747;51.998;4.466;2022-08-02T02:54:25;4.32;;;1.70;;
68757;SDS011;55747;51.998;4.466;2022-08-02T02:56:52;4.30;;;1.33;;
68757;SDS011;55747;51.998;4.466;2022-08-02T02:59:18;3.13;;;1.60;;
68757;SDS011;55747;51.998;4.466;2022-08-02T03:01:43;5.82;;;1.48;;
68757;SDS011;55747;51.998;4.466;2022-08-02T03:04:10;4.00;;;1.60;;
68757;SDS011;55747;51.998;4.466;2022-08-02T03:06:36;8.27;;;1.50;;
68757;SDS011;55747;51.998;4.466;2022-08-02T03:09:03;4.47;;;1.33;;
68757;SDS011;55747;51.998;4.466;2022-08-02T03:11:29;6.85;;;1.63;;
68757;SDS011;55747;51.998;4.466;2022-08-02T03:13:56;2.83;;;1.40;;
68757;SDS011;55747;51.998;4.466;2022-08-02T03:16:23;4.50;;;1.63;;
68757;SDS011;55747;51.998;4.466;2022-08-02T03:18:50;3.20;;;1.35;;
68757;SDS011;55747;51.998;4.466;2022-08-02T03:21:15;3.88;;;1.38;;
68757;SDS011;55747;51.998;4.466;2022-08-02T03:23:41;7.32;;;1.50;;
68757;SDS011;55747;51.998;4.466;2022-08-02T03:26:07;4.07;;;1.38;;
68757;SDS011;55747;51.998;4.466;2022-08-02T03:28:33;5.88;;;1.38;;
68757;SDS011;55747;51.998;4.466;2022-08-02T03:30:58;5.00;;;1.80;;
68757;SDS011;55747;51.998;4.466;2022-08-02T03:33:24;4.43;;;1.52;;
68757;SDS011;55747;51.998;4.466;2022-08-02T03:35:51;3.95;;;1.48;;
68757;SDS011;55747;51.998;4.466;2022-08-02T03:38:19;4.45;;;1.30;;
68757;SDS011;55747;51.998;4.466;2022-08-02T03:40:46;4.97;;;1.48;;
68757;SDS011;55747;51.998;4.466;2022-08-02T03:43:13;4.95;;;1.23;;
68757;SDS011;55747;51.998;4.466;2022-08-02T03:45:43;4.28;;;1.40;;
68757;SDS011;55747;51.998;4.466;2022-08-02T03:48:11;3.05;;;1.10;;
68757;SDS011;55747;51.998;4.466;2022-08-02T03:50:38;4.03;;;1.40;;
68757;SDS011;55747;51.998;4.466;2022-08-02T03:53:05;4.63;;;1.50;;
68757;SDS011;55747;51.998;4.466;2022-08-02T03:55:31;4.05;;;1.33;;
68757;SDS011;55747;51.998;4.466;2022-08-02T03:57:57;5.30;;;1.75;;
68757;SDS011;55747;51.998;4.466;2022-08-02T04:00:22;4.05;;;1.60;;
68757;SDS011;55747;51.998;4.466;2022-08-02T04:02:48;2.60;;;1.40;;
68757;SDS011;55747;51.998;4.466;2022-08-02T04:05:14;3.92;;;1.48;;
68757;SDS011;55747;51.998;4.466;2022-08-02T04:07:40;4.32;;;1.52;;
68757;SDS011;55747;51.998;4.466;2022-08-02T04:10:07;4.05;;;1.55;;
68757;SDS011;55747;51.998;4.466;2022-08-02T04:12:33;4.57;;;1.50;;
68757;SDS011;55747;51.998;4.466;2022-08-02T04:14:58;5.55;;;1.30;;
68757;SDS011;55747;51.998;4.466;2022-08-02T04:17:25;5.28;;;1.83;;
68757;SDS011;55747;51.998;4.466;2022-08-02T04:19:57;3.13;;;1.52;;
68757;SDS011;55747;51.998;4.466;2022-08-02T04:22:25;3.08;;;1.63;;
68757;SDS011;55747;51.998;4.466;2022-08-02T04:24:54;3.55;;;1.60;;
68757;SDS011;55747;51.998;4.466;2022-08-02T04:27:23;4.45;;;1.52;;
68757;SDS011;55747;51.998;4.466;2022-08-02T04:29:49;3.65;;;1.60;;
68757;SDS011;55747;51.998;4.466;2022-08-02T04:32:15;4.13;;;1.80;;
68757;SDS011;55747;51.998;4.466;2022-08-02T04:34:41;3.33;;;1.85;;
68757;SDS011;55747;51.998;4.466;2022-08-02T04:37:08;4.95;;;2.00;;
68757;SDS011;55747;51.998;4.466;2022-08-02T04:39:36;4.03;;;1.52;;
68757;SDS011;55747;51.998;4.466;2022-08-02T04:42:02;5.30;;;1.55;;
68757;SDS011;55747;51.998;4.466;2022-08-02T04:44:27;5.60;;;1.80;;
68757;SDS011;55747;51.998;4.466;2022-08-02T04:46:53;4.72;;;1.70;;
68757;SDS011;55747;51.998;4.466;2022-08-02T04:49:19;4.22;;;1.60;;
68757;SDS011;55747;51.998;4.466;2022-08-02T04:51:45;4.93;;;1.70;;
68757;SDS011;55747;51.998;4.466;2022-08-02T04:54:11;4.95;;;1.80;;
68757;SDS011;55747;51.998;4.466;2022-08-02T04:56:37;3.38;;;1.70;;
68757;SDS011;55747;51.998;4.466;2022-08-02T04:59:02;3.33;;;1.63;;
68757;SDS011;55747;51.998;4.466;2022-08-02T05:01:28;4.75;;;1.80;;
68757;SDS011;55747;51.998;4.466;2022-08-02T05:03:53;12.10;;;2.15;;
68757;SDS011;55747;51.998;4.466;2022-08-02T05:06:18;5.87;;;2.20;;
68757;SDS011;55747;51.998;4.466;2022-08-02T05:08:47;5.25;;;2.15;;
68757;SDS011;55747;51.998;4.466;2022-08-02T05:11:13;4.13;;;2.15;;
68757;SDS011;55747;51.998;4.466;2022-08-02T05:13:41;5.53;;;2.38;;
68757;SDS011;55747;51.998;4.466;2022-08-02T05:16:07;6.45;;;2.05;;
68757;SDS011;55747;51.998;4.466;2022-08-02T05:18:32;4.70;;;2.30;;
68757;SDS011;55747;51.998;4.466;2022-08-02T05:20:57;5.82;;;2.33;;
68757;SDS011;55747;51.998;4.466;2022-08-02T05:23:23;7.40;;;2.33;;
68757;SDS011;55747;51.998;4.466;2022-08-02T05:25:48;6.55;;;2.60;;
68757;SDS011;55747;51.998;4.466;2022-08-02T05:28:14;7.37;;;2.37;;
68757;SDS011;55747;51.998;4.466;2022-08-02T05:30:39;7.90;;;2.50;;
68757;SDS011;55747;51.998;4.466;2022-08-02T05:33:04;5.65;;;2.70;;
68757;SDS011;55747;51.998;4.466;2022-08-02T05:35:30;5.93;;;2.92;;
68757;SDS011;55747;51.998;4.466;2022-08-02T05:37:55;7.53;;;3.05;;
68757;SDS011;55747;51.998;4.466;2022-08-02T05:40:21;7.82;;;2.90;;
68757;SDS011;55747;51.998;4.466;2022-08-02T05:42:46;10.00;;;3.33;;
68757;SDS011;55747;51.998;4.466;2022-08-02T05:45:12;7.70;;;2.92;;
68757;SDS011;55747;51.998;4.466;2022-08-02T05:47:38;7.82;;;3.47;;
68757;SDS011;55747;51.998;4.466;2022-08-02T05:50:05;5.72;;;3.33;;
68757;SDS011;55747;51.998;4.466;2022-08-02T05:52:51;9.85;;;4.10;;
68757;SDS011;55747;51.998;4.466;2022-08-02T05:55:26;7.65;;;4.20;;
68757;SDS011;55747;51.998;4.466;2022-08-02T06:00:51;10.20;;;4.63;;
68757;SDS011;55747;51.998;4.466;2022-08-02T06:06:09;10.55;;;4.85;;
68757;SDS011;55747;51.998;4.466;2022-08-02T06:08:37;9.02;;;5.28;;
68757;SDS011;55747;51.998;4.466;2022-08-02T06:11:05;10.25;;;5.55;;
68757;SDS011;55747;51.998;4.466;2022-08-02T06:16:02;11.25;;;5.53;;
68757;SDS011;55747;51.998;4.466;2022-08-02T06:18:29;8.88;;;5.65;;
68757;SDS011;55747;51.998;4.466;2022-08-02T06:20:57;8.88;;;5.38;;
68757;SDS011;55747;51.998;4.466;2022-08-02T06:23:26;19.48;;;7.10;;
68757;SDS011;55747;51.998;4.466;2022-08-02T06:25:53;11.43;;;7.43;;
68757;SDS011;55747;51.998;4.466;2022-08-02T06:28:21;14.70;;;7.25;;
68757;SDS011;55747;51.998;4.466;2022-08-02T06:30:47;11.60;;;7.25;;
68757;SDS011;55747;51.998;4.466;2022-08-02T06:33:14;14.45;;;8.10;;
68757;SDS011;55747;51.998;4.466;2022-08-02T06:38:05;18.30;;;8.13;;
68757;SDS011;55747;51.998;4.466;2022-08-02T06:40:39;15.93;;;8.73;;
68757;SDS011;55747;51.998;4.466;2022-08-02T06:46:02;18.10;;;9.40;;
68757;SDS011;55747;51.998;4.466;2022-08-02T06:48:28;14.25;;;9.20;;
68757;SDS011;55747;51.998;4.466;2022-08-02T06:50:55;14.60;;;9.52;;
68757;SDS011;55747;51.998;4.466;2022-08-02T06:53:21;16.05;;;9.30;;
68757;SDS011;55747;51.998;4.466;2022-08-02T06:55:46;16.98;;;10.07;;
68757;SDS011;55747;51.998;4.466;2022-08-02T06:58:12;18.57;;;10.77;;
68757;SDS011;55747;51.998;4.466;2022-08-02T07:00:38;17.40;;;10.00;;
68757;SDS011;55747;51.998;4.466;2022-08-02T07:03:05;16.27;;;9.38;;
68757;SDS011;55747;51.998;4.466;2022-08-02T07:05:31;17.77;;;10.43;;
68757;SDS011;55747;51.998;4.466;2022-08-02T07:07:57;19.83;;;10.52;;
68757;SDS011;55747;51.998;4.466;2022-08-02T07:10:22;16.67;;;10.60;;
68757;SDS011;55747;51.998;4.466;2022-08-02T07:12:47;18.63;;;13.60;;
68757;SDS011;55747;51.998;4.466;2022-08-02T07:15:13;23.27;;;16.63;;
68757;SDS011;55747;51.998;4.466;2022-08-02T07:17:40;25.83;;;18.27;;
68757;SDS011;55747;51.998;4.466;2022-08-02T07:20:05;25.98;;;20.90;;
68757;SDS011;55747;51.998;4.466;2022-08-02T07:22:34;28.88;;;20.52;;
68757;SDS011;55747;51.998;4.466;2022-08-02T07:25:00;24.77;;;20.25;;
68757;SDS011;55747;51.998;4.466;2022-08-02T07:27:26;27.25;;;21.90;;
68757;SDS011;55747;51.998;4.466;2022-08-02T07:29:52;27.25;;;20.23;;
68757;SDS011;55747;51.998;4.466;2022-08-02T07:32:19;23.85;;;19.50;;
68757;SDS011;55747;51.998;4.466;2022-08-02T07:34:46;21.33;;;16.05;;
68757;SDS011;55747;51.998;4.466;2022-08-02T07:37:13;18.65;;;15.40;;
68757;SDS011;55747;51.998;4.466;2022-08-02T07:39:38;18.17;;;14.82;;
68757;SDS011;55747;51.998;4.466;2022-08-02T07:42:03;20.52;;;17.20;;
68757;SDS011;55747;51.998;4.466;2022-08-02T07:44:29;16.45;;;13.88;;
68757;SDS011;55747;51.998;4.466;2022-08-02T07:46:59;17.27;;;15.15;;
68757;SDS011;55747;51.998;4.466;2022-08-02T07:49:25;15.30;;;11.93;;
68757;SDS011;55747;51.998;4.466;2022-08-02T07:51:51;13.85;;;9.23;;
68757;SDS011;55747;51.998;4.466;2022-08-02T07:54:16;14.27;;;10.17;;
68757;SDS011;55747;51.998;4.466;2022-08-02T07:56:42;12.20;;;9.05;;
68757;SDS011;55747;51.998;4.466;2022-08-02T07:59:07;13.40;;;8.67;;
68757;SDS011;55747;51.998;4.466;2022-08-02T08:01:34;13.65;;;8.63;;
68757;SDS011;55747;51.998;4.466;2022-08-02T08:03:59;10.77;;;8.10;;
68757;SDS011;55747;51.998;4.466;2022-08-02T08:06:25;11.27;;;8.23;;
68757;SDS011;55747;51.998;4.466;2022-08-02T08:08:50;11.33;;;7.50;;
68757;SDS011;55747;51.998;4.466;2022-08-02T08:11:15;10.27;;;7.37;;
68757;SDS011;55747;51.998;4.466;2022-08-02T08:13:41;12.02;;;7.30;;
68757;SDS011;55747;51.998;4.466;2022-08-02T08:16:06;13.18;;;7.28;;
68757;SDS011;55747;51.998;4.466;2022-08-02T08:18:31;9.70;;;6.43;;
68757;SDS011;55747;51.998;4.466;2022-08-02T08:20:57;9.43;;;6.20;;
68757;SDS011;55747;51.998;4.466;2022-08-02T08:23:22;12.07;;;6.80;;
68757;SDS011;55747;51.998;4.466;2022-08-02T08:25:48;8.77;;;6.97;;
68757;SDS011;55747;51.998;4.466;2022-08-02T08:28:13;11.60;;;6.75;;
68757;SDS011;55747;51.998;4.466;2022-08-02T08:30:39;10.40;;;6.82;;
68757;SDS011;55747;51.998;4.466;2022-08-02T08:33:06;9.02;;;6.13;;
68757;SDS011;55747;51.998;4.466;2022-08-02T08:35:31;12.45;;;5.85;;
68757;SDS011;55747;51.998;4.466;2022-08-02T08:37:57;6.75;;;5.00;;
68757;SDS011;55747;51.998;4.466;2022-08-02T08:40:23;9.23;;;5.50;;
68757;SDS011;55747;51.998;4.466;2022-08-02T08:42:49;7.63;;;5.28;;
68757;SDS011;55747;51.998;4.466;2022-08-02T08:45:15;9.27;;;6.28;;
68757;SDS011;55747;51.998;4.466;2022-08-02T08:47:41;11.63;;;7.18;;
68757;SDS011;55747;51.998;4.466;2022-08-02T08:50:09;8.95;;;5.07;;
68757;SDS011;55747;51.998;4.466;2022-08-02T08:52:40;7.85;;;5.20;;
68757;SDS011;55747;51.998;4.466;2022-08-02T08:55:09;6.57;;;4.60;;
68757;SDS011;55747;51.998;4.466;2022-08-02T08:57:41;10.15;;;5.43;;
68757;SDS011;55747;51.998;4.466;2022-08-02T09:00:08;6.45;;;4.95;;
68757;SDS011;55747;51.998;4.466;2022-08-02T09:02:36;7.15;;;5.22;;
68757;SDS011;55747;51.998;4.466;2022-08-02T09:05:05;9.20;;;5.45;;
68757;SDS011;55747;51.998;4.466;2022-08-02T09:07:33;7.28;;;5.20;;
68757;SDS011;55747;51.998;4.466;2022-08-02T09:09:58;8.80;;;5.00;;
68757;SDS011;55747;51.998;4.466;2022-08-02T09:12:24;9.07;;;4.50;;
68757;SDS011;55747;51.998;4.466;2022-08-02T09:14:49;5.65;;;4.00;;
68757;SDS011;55747;51.998;4.466;2022-08-02T09:17:15;6.78;;;3.78;;
68757;SDS011;55747;51.998;4.466;2022-08-02T09:19:40;6.32;;;4.03;;
68757;SDS011;55747;51.998;4.466;2022-08-02T09:22:07;6.43;;;4.30;;
68757;SDS011;55747;51.998;4.466;2022-08-02T09:24:44;5.53;;;4.10;;
68757;SDS011;55747;51.998;4.466;2022-08-02T09:27:14;7.97;;;5.18;;
68757;SDS011;55747;51.998;4.466;2022-08-02T09:29:44;6.40;;;4.45;;
68757;SDS011;55747;51.998;4.466;2022-08-02T09:32:16;9.18;;;5.15;;
68757;SDS011;55747;51.998;4.466;2022-08-02T09:34:49;8.40;;;4.90;;
68757;SDS011;55747;51.998;4.466;2022-08-02T09:37:21;7.70;;;4.97;;
68757;SDS011;55747;51.998;4.466;2022-08-02T09:39:48;7.28;;;4.72;;
68757;SDS011;55747;51.998;4.466;2022-08-02T09:42:13;7.60;;;4.97;;
68757;SDS011;55747;51.998;4.466;2022-08-02T09:44:39;13.35;;;5.78;;
68757;SDS011;55747;51.998;4.466;2022-08-02T09:47:12;13.68;;;5.95;;
68757;SDS011;55747;51.998;4.466;2022-08-02T09:49:44;7.45;;;4.80;;
68757;SDS011;55747;51.998;4.466;2022-08-02T09:52:10;9.63;;;5.10;;
68757;SDS011;55747;51.998;4.466;2022-08-02T09:54:36;7.07;;;4.13;;
68757;SDS011;55747;51.998;4.466;2022-08-02T09:57:03;7.68;;;4.75;;
68757;SDS011;55747;51.998;4.466;2022-08-02T09:59:29;8.70;;;5.50;;
68757;SDS011;55747;51.998;4.466;2022-08-02T10:01:56;10.93;;;5.47;;
68757;SDS011;55747;51.998;4.466;2022-08-02T10:04:23;10.98;;;5.50;;
68757;SDS011;55747;51.998;4.466;2022-08-02T10:06:49;7.88;;;5.15;;
68757;SDS011;55747;51.998;4.466;2022-08-02T10:09:17;10.38;;;5.70;;
68757;SDS011;55747;51.998;4.466;2022-08-02T10:11:43;10.57;;;6.00;;
68757;SDS011;55747;51.998;4.466;2022-08-02T10:14:09;11.55;;;5.88;;
68757;SDS011;55747;51.998;4.466;2022-08-02T10:16:36;11.15;;;5.55;;
68757;SDS011;55747;51.998;4.466;2022-08-02T10:19:05;11.63;;;5.32;;
68757;SDS011;55747;51.998;4.466;2022-08-02T10:21:32;12.02;;;5.82;;
68757;SDS011;55747;51.998;4.466;2022-08-02T10:24:08;14.85;;;6.32;;
68757;SDS011;55747;51.998;4.466;2022-08-02T10:26:37;8.23;;;5.65;;
68757;SDS011;55747;51.998;4.466;2022-08-02T10:29:03;9.73;;;5.30;;
68757;SDS011;55747;51.998;4.466;2022-08-02T10:31:35;17.40;;;6.00;;
68757;SDS011;55747;51.998;4.466;2022-08-02T10:34:06;8.98;;;5.88;;
68757;SDS011;55747;51.998;4.466;2022-08-02T10:36:34;11.45;;;5.55;;
68757;SDS011;55747;51.998;4.466;2022-08-02T10:39:03;9.02;;;5.72;;
68757;SDS011;55747;51.998;4.466;2022-08-02T10:41:38;8.13;;;6.05;;
68757;SDS011;55747;51.998;4.466;2022-08-02T10:44:05;9.80;;;5.97;;
68757;SDS011;55747;51.998;4.466;2022-08-02T10:49:08;9.27;;;6.13;;
68757;SDS011;55747;51.998;4.466;2022-08-02T10:54:27;6.13;;;4.97;;
68757;SDS011;55747;51.998;4.466;2022-08-02T10:56:54;8.45;;;4.68;;
68757;SDS011;55747;51.998;4.466;2022-08-02T10:59:27;8.80;;;5.97;;
68757;SDS011;55747;51.998;4.466;2022-08-02T11:01:55;8.23;;;5.25;;
68757;SDS011;55747;51.998;4.466;2022-08-02T11:09:35;8.85;;;5.47;;
68757;SDS011;55747;51.998;4.466;2022-08-02T11:12:05;7.63;;;5.47;;
68757;SDS011;55747;51.998;4.466;2022-08-02T11:14:31;9.07;;;5.82;;
68757;SDS011;55747;51.998;4.466;2022-08-02T11:19:26;8.77;;;6.50;;
68757;SDS011;55747;51.998;4.466;2022-08-02T11:21:59;10.63;;;6.13;;
68757;SDS011;55747;51.998;4.466;2022-08-02T11:24:32;8.27;;;6.63;;
68757;SDS011;55747;51.998;4.466;2022-08-02T11:27:00;6.43;;;5.43;;
68757;SDS011;55747;51.998;4.466;2022-08-02T11:29:39;9.65;;;6.03;;
68757;SDS011;55747;51.998;4.466;2022-08-02T11:32:07;9.52;;;5.75;;
68757;SDS011;55747;51.998;4.466;2022-08-02T11:34:39;8.20;;;5.43;;
68757;SDS011;55747;51.998;4.466;2022-08-02T11:37:06;8.95;;;6.03;;
68757;SDS011;55747;51.998;4.466;2022-08-02T11:39:32;8.13;;;5.43;;
68757;SDS011;55747;51.998;4.466;2022-08-02T11:41:58;9.27;;;4.70;;
68757;SDS011;55747;51.998;4.466;2022-08-02T11:44:25;10.00;;;5.57;;
68757;SDS011;55747;51.998;4.466;2022-08-02T11:47:01;10.23;;;5.75;;
68757;SDS011;55747;51.998;4.466;2022-08-02T11:49:27;7.70;;;5.00;;
68757;SDS011;55747;51.998;4.466;2022-08-02T11:52:03;9.40;;;3.90;;
68757;SDS011;55747;51.998;4.466;2022-08-02T11:54:31;6.97;;;4.30;;
68757;SDS011;55747;51.998;4.466;2022-08-02T11:57:11;7.45;;;4.03;;
68757;SDS011;55747;51.998;4.466;2022-08-02T11:59:38;6.13;;;3.30;;
68757;SDS011;55747;51.998;4.466;2022-08-02T12:02:05;6.07;;;2.65;;
68757;SDS011;55747;51.998;4.466;2022-08-02T12:04:31;4.57;;;3.15;;
68757;SDS011;55747;51.998;4.466;2022-08-02T12:06:58;5.30;;;2.80;;
68757;SDS011;55747;51.998;4.466;2022-08-02T12:09:24;4.55;;;3.20;;
68757;SDS011;55747;51.998;4.466;2022-08-02T12:11:54;4.60;;;2.40;;
68757;SDS011;55747;51.998;4.466;2022-08-02T12:14:21;6.15;;;2.88;;
68757;SDS011;55747;51.998;4.466;2022-08-02T12:16:48;4.45;;;2.58;;
68757;SDS011;55747;51.998;4.466;2022-08-02T12:19:33;5.85;;;2.92;;
68757;SDS011;55747;51.998;4.466;2022-08-02T12:22:09;7.75;;;2.55;;
68757;SDS011;55747;51.998;4.466;2022-08-02T12:24:42;7.85;;;2.83;;
68757;SDS011;55747;51.998;4.466;2022-08-02T12:27:09;5.40;;;2.90;;
68757;SDS011;55747;51.998;4.466;2022-08-02T12:29:56;6.82;;;2.85;;
68757;SDS011;55747;51.998;4.466;2022-08-02T12:32:23;7.68;;;2.90;;
68757;SDS011;55747;51.998;4.466;2022-08-02T12:34:59;5.95;;;3.03;;
68757;SDS011;55747;51.998;4.466;2022-08-02T12:37:26;5.78;;;2.80;;
68757;SDS011;55747;51.998;4.466;2022-08-02T12:39:51;5.57;;;3.00;;
68757;SDS011;55747;51.998;4.466;2022-08-02T12:42:17;3.40;;;2.15;;
68757;SDS011;55747;51.998;4.466;2022-08-02T12:47:14;5.15;;;2.72;;
68757;SDS011;55747;51.998;4.466;2022-08-02T12:49:40;6.00;;;2.80;;
68757;SDS011;55747;51.998;4.466;2022-08-02T12:52:22;5.10;;;2.55;;
68757;SDS011;55747;51.998;4.466;2022-08-02T12:54:48;4.35;;;2.00;;
68757;SDS011;55747;51.998;4.466;2022-08-02T12:57:14;5.15;;;1.50;;
68757;SDS011;55747;51.998;4.466;2022-08-02T12:59:43;7.13;;;1.55;;
68757;SDS011;55747;51.998;4.466;2022-08-02T13:02:14;4.47;;;1.42;;
68757;SDS011;55747;51.998;4.466;2022-08-02T13:04:40;4.32;;;1.48;;
68757;SDS011;55747;51.998;4.466;2022-08-02T13:07:05;6.60;;;1.90;;
68757;SDS011;55747;51.998;4.466;2022-08-02T13:09:35;4.37;;;1.50;;
68757;SDS011;55747;51.998;4.466;2022-08-02T13:12:01;6.95;;;1.85;;
68757;SDS011;55747;51.998;4.466;2022-08-02T13:14:27;5.75;;;1.73;;
68757;SDS011;55747;51.998;4.466;2022-08-02T13:16:53;6.13;;;1.80;;
68757;SDS011;55747;51.998;4.466;2022-08-02T13:19:18;5.60;;;1.90;;
68757;SDS011;55747;51.998;4.466;2022-08-02T13:21:44;7.57;;;1.92;;
68757;SDS011;55747;51.998;4.466;2022-08-02T13:24:10;7.30;;;2.00;;
68757;SDS011;55747;51.998;4.466;2022-08-02T13:26:38;8.48;;;2.17;;
68757;SDS011;55747;51.998;4.466;2022-08-02T13:29:04;10.77;;;2.60;;
68757;SDS011;55747;51.998;4.466;2022-08-02T13:31:29;8.80;;;2.20;;
68757;SDS011;55747;51.998;4.466;2022-08-02T13:33:57;9.32;;;2.30;;
68757;SDS011;55747;51.998;4.466;2022-08-02T13:36:23;5.93;;;2.20;;
68757;SDS011;55747;51.998;4.466;2022-08-02T13:38:49;10.37;;;2.57;;
68757;SDS011;55747;51.998;4.466;2022-08-02T13:41:14;6.90;;;2.37;;
68757;SDS011;55747;51.998;4.466;2022-08-02T13:43:39;7.27;;;2.30;;
68757;SDS011;55747;51.998;4.466;2022-08-02T13:46:05;6.60;;;2.00;;
68757;SDS011;55747;51.998;4.466;2022-08-02T13:48:32;10.25;;;2.65;;
68757;SDS011;55747;51.998;4.466;2022-08-02T13:50:57;9.30;;;2.67;;
68757;SDS011;55747;51.998;4.466;2022-08-02T13:53:23;5.82;;;2.25;;
68757;SDS011;55747;51.998;4.466;2022-08-02T13:55:48;10.80;;;2.67;;
68757;SDS011;55747;51.998;4.466;2022-08-02T13:58:13;7.43;;;2.40;;
68757;SDS011;55747;51.998;4.466;2022-08-02T14:00:39;5.47;;;2.15;;
68757;SDS011;55747;51.998;4.466;2022-08-02T14:03:05;6.60;;;2.60;;
68757;SDS011;55747;51.998;4.466;2022-08-02T14:05:31;6.80;;;2.42;;
68757;SDS011;55747;51.998;4.466;2022-08-02T14:08:00;8.48;;;2.20;;
68757;SDS011;55747;51.998;4.466;2022-08-02T14:10:25;6.30;;;2.13;;
68757;SDS011;55747;51.998;4.466;2022-08-02T14:12:51;6.17;;;2.20;;
68757;SDS011;55747;51.998;4.466;2022-08-02T14:15:17;7.97;;;2.22;;
68757;SDS011;55747;51.998;4.466;2022-08-02T14:17:42;7.28;;;2.60;;
68757;SDS011;55747;51.998;4.466;2022-08-02T14:20:08;9.83;;;2.73;;
68757;SDS011;55747;51.998;4.466;2022-08-02T14:22:33;9.02;;;2.97;;
68757;SDS011;55747;51.998;4.466;2022-08-02T14:24:59;5.33;;;2.17;;
68757;SDS011;55747;51.998;4.466;2022-08-02T14:27:24;7.23;;;2.70;;
68757;SDS011;55747;51.998;4.466;2022-08-02T14:29:49;7.70;;;2.50;;
68757;SDS011;55747;51.998;4.466;2022-08-02T14:32:15;8.63;;;2.30;;
68757;SDS011;55747;51.998;4.466;2022-08-02T14:34:41;11.23;;;2.40;;
68757;SDS011;55747;51.998;4.466;2022-08-02T14:37:08;9.43;;;2.53;;
68757;SDS011;55747;51.998;4.466;2022-08-02T14:39:33;4.93;;;1.95;;
68757;SDS011;55747;51.998;4.466;2022-08-02T14:41:58;8.50;;;2.40;;
68757;SDS011;55747;51.998;4.466;2022-08-02T14:44:24;8.63;;;2.17;;
68757;SDS011;55747;51.998;4.466;2022-08-02T14:46:49;5.63;;;1.90;;
68757;SDS011;55747;51.998;4.466;2022-08-02T14:49:15;6.75;;;1.98;;
68757;SDS011;55747;51.998;4.466;2022-08-02T14:51:40;6.43;;;2.10;;
68757;SDS011;55747;51.998;4.466;2022-08-02T14:54:06;6.28;;;2.13;;
68757;SDS011;55747;51.998;4.466;2022-08-02T14:56:32;6.28;;;2.08;;
68757;SDS011;55747;51.998;4.466;2022-08-02T14:58:58;6.53;;;2.10;;
68757;SDS011;55747;51.998;4.466;2022-08-02T15:01:23;11.37;;;2.37;;
68757;SDS011;55747;51.998;4.466;2022-08-02T15:03:49;7.20;;;2.33;;
68757;SDS011;55747;51.998;4.466;2022-08-02T15:06:14;7.68;;;2.03;;
68757;SDS011;55747;51.998;4.466;2022-08-02T15:08:40;7.90;;;2.10;;
68757;SDS011;55747;51.998;4.466;2022-08-02T15:11:05;6.50;;;1.90;;
68757;SDS011;55747;51.998;4.466;2022-08-02T15:13:30;8.30;;;2.10;;
68757;SDS011;55747;51.998;4.466;2022-08-02T15:15:56;7.17;;;1.97;;
68757;SDS011;55747;51.998;4.466;2022-08-02T15:18:21;6.90;;;1.90;;